sensor_id;sensor_type;location;lat;lon;timestamp;pressure;altitude;pressure_sealevel;temperature;humidity
3132;BME280;62090;52.330;9.104;2023-07-29T00:02:26;100184.81;;;21.43;100.00
3132;BME280;62090;52.330;9.104;2023-07-29T00:04:57;100179.09;;;21.32;100.00
3132;BME280;62090;52.330;9.104;2023-07-29T00:07:27;100179.75;;;21.38;99.98
3132;BME280;62090;52.330;9.104;2023-07-29T00:09:57;100184.75;;;21.46;99.16
3132;BME280;62090;52.330;9.104;2023-07-29T00:12:30;100168.00;;;21.56;99.02
3132;BME280;62090;52.330;9.104;2023-07-29T00:15:00;100183.28;;;21.65;98.55
3132;BME280;62090;52.330;9.104;2023-07-29T00:17:30;100177.09;;;21.69;97.36
3132;BME280;62090;52.330;9.104;2023-07-29T00:20:00;100179.69;;;21.69;97.44
3132;BME280;62090;52.330;9.104;2023-07-29T00:22:33;100169.25;;;21.72;97.32
3132;BME280;62090;52.330;9.104;2023-07-29T00:25:04;100168.28;;;21.75;96.70
3132;BME280;62090;52.330;9.104;2023-07-29T00:27:37;100175.16;;;21.77;96.64
3132;BME280;62090;52.330;9.104;2023-07-29T00:30:07;100171.34;;;21.60;96.42
3132;BME280;62090;52.330;9.104;2023-07-29T00:32:37;100170.78;;;21.50;97.25
3132;BME280;62090;52.330;9.104;2023-07-29T00:35:08;100181.94;;;21.52;96.53
3132;BME280;62090;52.330;9.104;2023-07-29T00:37:38;100172.41;;;21.53;96.48
3132;BME280;62090;52.330;9.104;2023-07-29T00:40:14;100169.78;;;21.54;96.99
3132;BME280;62090;52.330;9.104;2023-07-29T00:42:50;100171.50;;;21.55;96.75
3132;BME280;62090;52.330;9.104;2023-07-29T00:45:20;100167.25;;;21.53;97.43
3132;BME280;62090;52.330;9.104;2023-07-29T00:47:50;100160.38;;;21.52;97.48
3132;BME280;62090;52.330;9.104;2023-07-29T00:50:20;100161.41;;;21.46;97.40
3132;BME280;62090;52.330;9.104;2023-07-29T00:52:51;100159.06;;;21.37;98.92
3132;BME280;62090;52.330;9.104;2023-07-29T00:55:23;100165.06;;;21.39;99.65
3132;BME280;62090;52.330;9.104;2023-07-29T00:57:55;100158.00;;;21.44;99.50
3132;BME280;62090;52.330;9.104;2023-07-29T01:00:25;100155.44;;;21.42;100.00
3132;BME280;62090;52.330;9.104;2023-07-29T01:02:56;100154.78;;;21.36;100.00
3132;BME280;62090;52.330;9.104;2023-07-29T01:05:30;100159.88;;;21.39;100.00
3132;BME280;62090;52.330;9.104;2023-07-29T01:08:06;100169.53;;;21.34;100.00
3132;BME280;62090;52.330;9.104;2023-07-29T01:10:44;100166.69;;;21.11;100.00
3132;BME280;62090;52.330;9.104;2023-07-29T01:13:23;100157.34;;;21.05;100.00
3132;BME280;62090;52.330;9.104;2023-07-29T01:16:00;100155.97;;;20.93;100.00
3132;BME280;62090;52.330;9.104;2023-07-29T01:18:35;100164.28;;;21.04;100.00
3132;BME280;62090;52.330;9.104;2023-07-29T01:21:08;100141.03;;;21.03;100.00
3132;BME280;62090;52.330;9.104;2023-07-29T01:23:40;100158.03;;;21.12;100.00
3132;BME280;62090;52.330;9.104;2023-07-29T01:26:11;100145.88;;;21.15;100.00
3132;BME280;62090;52.330;9.104;2023-07-29T01:28:41;100154.31;;;21.22;100.00
3132;BME280;62090;52.330;9.104;2023-07-29T01:31:19;100139.59;;;21.24;100.00
3132;BME280;62090;52.330;9.104;2023-07-29T01:33:57;100143.88;;;21.25;100.00
3132;BME280;62090;52.330;9.104;2023-07-29T01:36:29;100134.41;;;21.24;100.00
3132;BME280;62090;52.330;9.104;2023-07-29T01:39:05;100136.69;;;21.34;100.00
3132;BME280;62090;52.330;9.104;2023-07-29T01:41:35;100146.94;;;21.37;100.00
3132;BME280;62090;52.330;9.104;2023-07-29T01:44:07;100141.59;;;21.43;100.00
3132;BME280;62090;52.330;9.104;2023-07-29T01:46:38;100144.03;;;21.48;100.00
3132;BME280;62090;52.330;9.104;2023-07-29T01:49:08;100147.34;;;21.53;100.00
3132;BME280;62090;52.330;9.104;2023-07-29T01:51:38;100133.78;;;21.45;100.00
3132;BME280;62090;52.330;9.104;2023-07-29T01:54:10;100132.69;;;21.52;100.00
3132;BME280;62090;52.330;9.104;2023-07-29T01:56:40;100137.25;;;21.44;100.00
3132;BME280;62090;52.330;9.104;2023-07-29T01:59:10;100137.28;;;21.42;100.00
3132;BME280;62090;52.330;9.104;2023-07-29T02:01:41;100111.09;;;21.24;100.00
3132;BME280;62090;52.330;9.104;2023-07-29T02:04:11;100126.47;;;21.30;100.00
3132;BME280;62090;52.330;9.104;2023-07-29T02:06:41;100124.78;;;21.27;100.00
3132;BME280;62090;52.330;9.104;2023-07-29T02:09:14;100123.88;;;21.30;100.00
3132;BME280;62090;52.330;9.104;2023-07-29T02:11:44;100063.13;;;20.78;100.00
3132;BME280;62090;52.330;9.104;2023-07-29T02:14:14;100128.38;;;21.23;100.00
3132;BME280;62090;52.330;9.104;2023-07-29T02:16:44;100122.22;;;21.26;100.00
3132;BME280;62090;52.330;9.104;2023-07-29T02:19:14;100087.75;;;21.24;100.00
3132;BME280;62090;52.330;9.104;2023-07-29T02:21:44;100114.63;;;21.49;100.00
3132;BME280;62090;52.330;9.104;2023-07-29T02:24:16;100111.81;;;21.57;100.00
3132;BME280;62090;52.330;9.104;2023-07-29T02:26:46;100112.56;;;21.60;100.00
3132;BME280;62090;52.330;9.104;2023-07-29T02:29:16;100110.63;;;21.67;100.00
3132;BME280;62090;52.330;9.104;2023-07-29T02:31:46;100098.59;;;21.64;100.00
3132;BME280;62090;52.330;9.104;2023-07-29T02:34:16;100112.09;;;21.75;99.74
3132;BME280;62090;52.330;9.104;2023-07-29T02:36:46;100118.13;;;21.76;99.47
3132;BME280;62090;52.330;9.104;2023-07-29T02:39:19;100119.00;;;21.75;99.04
3132;BME280;62090;52.330;9.104;2023-07-29T02:41:50;100103.97;;;21.58;99.80
3132;BME280;62090;52.330;9.104;2023-07-29T02:44:20;100053.97;;;21.27;100.00
3132;BME280;62090;52.330;9.104;2023-07-29T02:46:49;100121.16;;;21.62;100.00
3132;BME280;62090;52.330;9.104;2023-07-29T02:49:21;100107.00;;;21.44;100.00
3132;BME280;62090;52.330;9.104;2023-07-29T02:51:51;100103.19;;;21.56;100.00
3132;BME280;62090;52.330;9.104;2023-07-29T02:54:24;100109.00;;;21.63;100.00
3132;BME280;62090;52.330;9.104;2023-07-29T02:56:54;100108.59;;;21.48;100.00
3132;BME280;62090;52.330;9.104;2023-07-29T02:59:23;100080.88;;;21.23;100.00
3132;BME280;62090;52.330;9.104;2023-07-29T03:01:53;100108.34;;;21.28;100.00
3132;BME280;62090;52.330;9.104;2023-07-29T03:04:23;100117.25;;;21.20;100.00
3132;BME280;62090;52.330;9.104;2023-07-29T03:06:54;100106.69;;;21.26;100.00
3132;BME280;62090;52.330;9.104;2023-07-29T03:09:26;100099.72;;;21.28;100.00
3132;BME280;62090;52.330;9.104;2023-07-29T03:11:56;100097.84;;;21.33;100.00
3132;BME280;62090;52.330;9.104;2023-07-29T03:14:26;100078.06;;;21.30;100.00
3132;BME280;62090;52.330;9.104;2023-07-29T03:16:56;100100.41;;;21.34;100.00
3132;BME280;62090;52.330;9.104;2023-07-29T03:19:26;100094.53;;;21.28;100.00
3132;BME280;62090;52.330;9.104;2023-07-29T03:21:56;100088.38;;;21.32;100.00
3132;BME280;62090;52.330;9.104;2023-07-29T03:24:28;100088.66;;;21.23;100.00
3132;BME280;62090;52.330;9.104;2023-07-29T03:26:58;100088.97;;;21.11;100.00
3132;BME280;62090;52.330;9.104;2023-07-29T03:29:28;100079.88;;;20.97;100.00
3132;BME280;62090;52.330;9.104;2023-07-29T03:31:58;100084.03;;;21.03;100.00
3132;BME280;62090;52.330;9.104;2023-07-29T03:34:28;100085.97;;;20.95;100.00
3132;BME280;62090;52.330;9.104;2023-07-29T03:36:59;100088.13;;;20.79;100.00
3132;BME280;62090;52.330;9.104;2023-07-29T03:39:31;100088.66;;;20.92;100.00
3132;BME280;62090;52.330;9.104;2023-07-29T03:42:02;100087.16;;;20.83;100.00
3132;BME280;62090;52.330;9.104;2023-07-29T03:44:32;100087.94;;;20.87;100.00
3132;BME280;62090;52.330;9.104;2023-07-29T03:47:02;100061.34;;;20.80;100.00
3132;BME280;62090;52.330;9.104;2023-07-29T03:49:32;100074.38;;;21.08;100.00
3132;BME280;62090;52.330;9.104;2023-07-29T03:52:04;100078.19;;;21.26;100.00
3132;BME280;62090;52.330;9.104;2023-07-29T03:54:36;100059.06;;;21.30;100.00
3132;BME280;62090;52.330;9.104;2023-07-29T03:57:06;100080.41;;;21.38;100.00
3132;BME280;62090;52.330;9.104;2023-07-29T03:59:36;100081.47;;;21.31;100.00
3132;BME280;62090;52.330;9.104;2023-07-29T04:02:06;100074.84;;;21.22;100.00
3132;BME280;62090;52.330;9.104;2023-07-29T04:04:36;100081.47;;;21.31;100.00
3132;BME280;62090;52.330;9.104;2023-07-29T04:07:06;100076.22;;;21.34;100.00
3132;BME280;62090;52.330;9.104;2023-07-29T04:09:39;100073.16;;;21.49;100.00
3132;BME280;62090;52.330;9.104;2023-07-29T04:12:10;100006.78;;;21.16;100.00
3132;BME280;62090;52.330;9.104;2023-07-29T04:14:40;100079.59;;;21.64;99.30
3132;BME280;62090;52.330;9.104;2023-07-29T04:17:10;100071.78;;;21.65;98.88
3132;BME280;62090;52.330;9.104;2023-07-29T04:19:39;100075.97;;;21.69;98.65
3132;BME280;62090;52.330;9.104;2023-07-29T04:22:10;100084.75;;;21.65;98.17
3132;BME280;62090;52.330;9.104;2023-07-29T04:24:42;100086.53;;;21.63;98.66
3132;BME280;62090;52.330;9.104;2023-07-29T04:27:12;100082.50;;;21.55;98.43
3132;BME280;62090;52.330;9.104;2023-07-29T04:29:42;100087.00;;;21.48;99.21
3132;BME280;62090;52.330;9.104;2023-07-29T04:32:12;100091.41;;;21.46;100.00
3132;BME280;62090;52.330;9.104;2023-07-29T04:34:42;100073.53;;;21.37;100.00
3132;BME280;62090;52.330;9.104;2023-07-29T04:37:12;100083.75;;;21.41;100.00
3132;BME280;62090;52.330;9.104;2023-07-29T04:39:45;100069.50;;;21.27;100.00
3132;BME280;62090;52.330;9.104;2023-07-29T04:42:15;100060.56;;;21.07;100.00
3132;BME280;62090;52.330;9.104;2023-07-29T04:44:45;100070.69;;;21.17;100.00
3132;BME280;62090;52.330;9.104;2023-07-29T04:47:14;100066.47;;;21.13;100.00
3132;BME280;62090;52.330;9.104;2023-07-29T04:49:45;100072.25;;;21.22;100.00
3132;BME280;62090;52.330;9.104;2023-07-29T04:52:14;100043.13;;;21.13;100.00
3132;BME280;62090;52.330;9.104;2023-07-29T04:54:49;100051.66;;;21.18;100.00
3132;BME280;62090;52.330;9.104;2023-07-29T04:57:19;100069.66;;;21.22;100.00
3132;BME280;62090;52.330;9.104;2023-07-29T04:59:48;100068.50;;;21.31;100.00
3132;BME280;62090;52.330;9.104;2023-07-29T05:02:18;100053.25;;;21.22;100.00
3132;BME280;62090;52.330;9.104;2023-07-29T05:04:48;100053.44;;;21.43;100.00
3132;BME280;62090;52.330;9.104;2023-07-29T05:07:18;100038.00;;;21.40;100.00
3132;BME280;62090;52.330;9.104;2023-07-29T05:09:51;100053.97;;;21.55;100.00
3132;BME280;62090;52.330;9.104;2023-07-29T05:12:21;100046.66;;;21.67;100.00
3132;BME280;62090;52.330;9.104;2023-07-29T05:14:51;100046.16;;;21.82;100.00
3132;BME280;62090;52.330;9.104;2023-07-29T05:17:21;100051.00;;;21.93;99.25
3132;BME280;62090;52.330;9.104;2023-07-29T05:19:51;100052.81;;;21.89;99.52
3132;BME280;62090;52.330;9.104;2023-07-29T05:22:21;100025.75;;;21.72;100.00
3132;BME280;62090;52.330;9.104;2023-07-29T05:24:54;100052.94;;;21.86;100.00
3132;BME280;62090;52.330;9.104;2023-07-29T05:27:24;100048.75;;;21.82;100.00
3132;BME280;62090;52.330;9.104;2023-07-29T05:29:54;100024.78;;;21.74;100.00
3132;BME280;62090;52.330;9.104;2023-07-29T05:32:24;100048.78;;;21.81;100.00
3132;BME280;62090;52.330;9.104;2023-07-29T05:34:54;100030.69;;;21.79;99.91
3132;BME280;62090;52.330;9.104;2023-07-29T05:37:23;100019.31;;;21.57;100.00
3132;BME280;62090;52.330;9.104;2023-07-29T05:39:56;100039.78;;;21.66;100.00
3132;BME280;62090;52.330;9.104;2023-07-29T05:42:26;99957.00;;;21.04;100.00
3132;BME280;62090;52.330;9.104;2023-07-29T05:44:56;100045.09;;;21.62;100.00
3132;BME280;62090;52.330;9.104;2023-07-29T05:47:26;100056.81;;;21.73;100.00
3132;BME280;62090;52.330;9.104;2023-07-29T05:49:56;100049.13;;;21.70;100.00
3132;BME280;62090;52.330;9.104;2023-07-29T05:52:29;100051.78;;;21.69;100.00
3132;BME280;62090;52.330;9.104;2023-07-29T05:55:01;100036.38;;;21.64;100.00
3132;BME280;62090;52.330;9.104;2023-07-29T05:57:31;100056.47;;;21.84;100.00
3132;BME280;62090;52.330;9.104;2023-07-29T06:00:01;100044.19;;;21.89;100.00
3132;BME280;62090;52.330;9.104;2023-07-29T06:02:39;100061.94;;;22.03;99.73
3132;BME280;62090;52.330;9.104;2023-07-29T06:05:14;100062.66;;;21.80;100.00
3132;BME280;62090;52.330;9.104;2023-07-29T06:07:44;100055.50;;;21.88;100.00
3132;BME280;62090;52.330;9.104;2023-07-29T06:10:17;100054.31;;;21.98;100.00
3132;BME280;62090;52.330;9.104;2023-07-29T06:12:47;100063.63;;;22.04;100.00
3132;BME280;62090;52.330;9.104;2023-07-29T06:15:17;100055.69;;;22.08;100.00
3132;BME280;62090;52.330;9.104;2023-07-29T06:17:50;100051.16;;;22.15;100.00
3132;BME280;62090;52.330;9.104;2023-07-29T06:20:23;100044.84;;;22.22;100.00
3132;BME280;62090;52.330;9.104;2023-07-29T06:22:53;100051.41;;;22.32;98.83
3132;BME280;62090;52.330;9.104;2023-07-29T06:25:25;100042.50;;;22.39;98.09
3132;BME280;62090;52.330;9.104;2023-07-29T06:27:55;100047.38;;;22.48;98.24
3132;BME280;62090;52.330;9.104;2023-07-29T06:30:25;100026.00;;;22.42;98.13
3132;BME280;62090;52.330;9.104;2023-07-29T06:32:55;100021.91;;;22.35;98.23
3132;BME280;62090;52.330;9.104;2023-07-29T06:35:25;100021.69;;;22.41;97.64
3132;BME280;62090;52.330;9.104;2023-07-29T06:37:55;100049.19;;;22.46;97.26
3132;BME280;62090;52.330;9.104;2023-07-29T06:40:27;100054.97;;;22.29;99.59
3132;BME280;62090;52.330;9.104;2023-07-29T06:42:57;100058.72;;;22.21;99.76
3132;BME280;62090;52.330;9.104;2023-07-29T06:45:27;100061.41;;;22.18;99.78
3132;BME280;62090;52.330;9.104;2023-07-29T06:47:57;99988.84;;;21.64;100.00
3132;BME280;62090;52.330;9.104;2023-07-29T06:50:27;100041.59;;;21.89;100.00
3132;BME280;62090;52.330;9.104;2023-07-29T06:52:57;100069.75;;;22.01;100.00
3132;BME280;62090;52.330;9.104;2023-07-29T06:55:29;100079.13;;;22.05;100.00
3132;BME280;62090;52.330;9.104;2023-07-29T06:57:59;100069.56;;;22.07;100.00
3132;BME280;62090;52.330;9.104;2023-07-29T07:00:29;100076.53;;;22.05;100.00
3132;BME280;62090;52.330;9.104;2023-07-29T07:02:59;100079.06;;;22.08;100.00
3132;BME280;62090;52.330;9.104;2023-07-29T07:05:29;100070.41;;;22.08;100.00
3132;BME280;62090;52.330;9.104;2023-07-29T07:07:59;100061.47;;;22.16;100.00
3132;BME280;62090;52.330;9.104;2023-07-29T07:10:31;100060.47;;;22.20;100.00
3132;BME280;62090;52.330;9.104;2023-07-29T07:13:01;100067.22;;;22.26;100.00
3132;BME280;62090;52.330;9.104;2023-07-29T07:15:31;100063.72;;;22.52;100.00
3132;BME280;62090;52.330;9.104;2023-07-29T07:18:04;100055.84;;;22.78;99.41
3132;BME280;62090;52.330;9.104;2023-07-29T07:20:34;100055.44;;;23.12;98.48
3132;BME280;62090;52.330;9.104;2023-07-29T07:23:04;100027.75;;;23.33;96.30
3132;BME280;62090;52.330;9.104;2023-07-29T07:25:41;100045.69;;;23.62;95.04
3132;BME280;62090;52.330;9.104;2023-07-29T07:28:11;99978.69;;;23.25;93.17
3132;BME280;62090;52.330;9.104;2023-07-29T07:30:41;100060.63;;;23.79;92.19
3132;BME280;62090;52.330;9.104;2023-07-29T07:33:11;100067.63;;;23.77;92.44
3132;BME280;62090;52.330;9.104;2023-07-29T07:35:41;100044.94;;;23.37;92.23
3132;BME280;62090;52.330;9.104;2023-07-29T07:38:11;100076.03;;;23.40;93.79
3132;BME280;62090;52.330;9.104;2023-07-29T07:40:52;100076.03;;;23.40;94.38
3132;BME280;62090;52.330;9.104;2023-07-29T07:43:23;100084.25;;;23.29;94.52
3132;BME280;62090;52.330;9.104;2023-07-29T07:45:58;100079.50;;;23.17;95.61
3132;BME280;62090;52.330;9.104;2023-07-29T07:48:28;100044.53;;;22.79;97.70
3132;BME280;62090;52.330;9.104;2023-07-29T07:51:00;100068.47;;;22.89;97.54
3132;BME280;62090;52.330;9.104;2023-07-29T07:53:29;100072.38;;;22.76;98.50
3132;BME280;62090;52.330;9.104;2023-07-29T07:56:02;100053.25;;;22.53;99.12
3132;BME280;62090;52.330;9.104;2023-07-29T07:58:32;100074.50;;;22.64;100.00
3132;BME280;62090;52.330;9.104;2023-07-29T08:01:02;100060.13;;;22.79;100.00
3132;BME280;62090;52.330;9.104;2023-07-29T08:03:33;100066.63;;;23.14;99.08
3132;BME280;62090;52.330;9.104;2023-07-29T08:06:04;100073.59;;;23.35;96.69
3132;BME280;62090;52.330;9.104;2023-07-29T08:08:36;100062.03;;;23.42;96.64
3132;BME280;62090;52.330;9.104;2023-07-29T08:11:09;100060.94;;;23.71;94.62
3132;BME280;62090;52.330;9.104;2023-07-29T08:13:39;100073.28;;;23.66;94.84
3132;BME280;62090;52.330;9.104;2023-07-29T08:16:09;100067.59;;;23.78;94.36
3132;BME280;62090;52.330;9.104;2023-07-29T08:18:39;100066.31;;;23.67;93.75
3132;BME280;62090;52.330;9.104;2023-07-29T08:21:08;100006.47;;;23.46;93.47
3132;BME280;62090;52.330;9.104;2023-07-29T08:23:38;100041.72;;;24.16;90.29
3132;BME280;62090;52.330;9.104;2023-07-29T08:26:11;100050.88;;;24.26;90.03
3132;BME280;62090;52.330;9.104;2023-07-29T08:28:41;100065.78;;;24.43;89.47
3132;BME280;62090;52.330;9.104;2023-07-29T08:31:10;100065.66;;;24.25;90.21
3132;BME280;62090;52.330;9.104;2023-07-29T08:33:40;100055.47;;;24.39;92.54
3132;BME280;62090;52.330;9.104;2023-07-29T08:36:10;100051.97;;;24.40;92.25
3132;BME280;62090;52.330;9.104;2023-07-29T08:38:40;100062.84;;;24.30;93.27
3132;BME280;62090;52.330;9.104;2023-07-29T08:41:14;100055.34;;;24.22;94.08
3132;BME280;62090;52.330;9.104;2023-07-29T08:43:50;100064.16;;;23.98;93.05
3132;BME280;62090;52.330;9.104;2023-07-29T08:46:22;100072.47;;;23.86;93.96
3132;BME280;62090;52.330;9.104;2023-07-29T08:48:52;100068.81;;;23.90;93.79
3132;BME280;62090;52.330;9.104;2023-07-29T08:51:23;100080.91;;;24.13;93.13
3132;BME280;62090;52.330;9.104;2023-07-29T08:53:53;100073.06;;;24.34;90.87
3132;BME280;62090;52.330;9.104;2023-07-29T08:56:26;100074.59;;;24.38;90.43
3132;BME280;62090;52.330;9.104;2023-07-29T08:58:57;100063.28;;;24.39;90.66
3132;BME280;62090;52.330;9.104;2023-07-29T09:01:29;100074.25;;;24.48;86.56
3132;BME280;62090;52.330;9.104;2023-07-29T09:03:59;100069.59;;;24.54;87.33
3132;BME280;62090;52.330;9.104;2023-07-29T09:06:29;100023.03;;;24.47;86.41
3132;BME280;62090;52.330;9.104;2023-07-29T09:09:01;100056.81;;;24.68;85.38
3132;BME280;62090;52.330;9.104;2023-07-29T09:11:33;100063.22;;;24.80;85.00
3132;BME280;62090;52.330;9.104;2023-07-29T09:14:04;100037.69;;;24.88;83.26
3132;BME280;62090;52.330;9.104;2023-07-29T09:16:33;100062.22;;;25.21;80.85
3132;BME280;62090;52.330;9.104;2023-07-29T09:19:04;100055.03;;;25.27;79.30
3132;BME280;62090;52.330;9.104;2023-07-29T09:21:34;100023.44;;;25.33;77.12
3132;BME280;62090;52.330;9.104;2023-07-29T09:24:08;100020.59;;;25.37;76.35
3132;BME280;62090;52.330;9.104;2023-07-29T09:26:48;100060.59;;;25.74;74.71
3132;BME280;62090;52.330;9.104;2023-07-29T09:29:22;100053.00;;;25.69;73.51
3132;BME280;62090;52.330;9.104;2023-07-29T09:31:52;100064.44;;;25.48;72.75
3132;BME280;62090;52.330;9.104;2023-07-29T09:34:22;100051.47;;;25.28;72.31
3132;BME280;62090;52.330;9.104;2023-07-29T09:36:52;100050.00;;;25.41;74.29
3132;BME280;62090;52.330;9.104;2023-07-29T09:39:23;100062.81;;;25.64;73.61
3132;BME280;62090;52.330;9.104;2023-07-29T09:41:55;100054.31;;;25.78;71.45
3132;BME280;62090;52.330;9.104;2023-07-29T09:44:25;100053.00;;;26.03;71.05
3132;BME280;62090;52.330;9.104;2023-07-29T09:46:55;100042.94;;;26.13;71.36
3132;BME280;62090;52.330;9.104;2023-07-29T09:49:24;100048.41;;;26.08;71.05
3132;BME280;62090;52.330;9.104;2023-07-29T09:51:55;100057.78;;;25.78;70.85
3132;BME280;62090;52.330;9.104;2023-07-29T09:54:26;100061.69;;;25.70;71.81
3132;BME280;62090;52.330;9.104;2023-07-29T09:56:59;100058.91;;;25.54;72.63
3132;BME280;62090;52.330;9.104;2023-07-29T09:59:33;100053.69;;;25.54;69.34
3132;BME280;62090;52.330;9.104;2023-07-29T10:02:04;100049.16;;;25.59;68.61
3132;BME280;62090;52.330;9.104;2023-07-29T10:04:34;100054.63;;;25.89;68.50
3132;BME280;62090;52.330;9.104;2023-07-29T10:07:04;100059.56;;;25.95;66.24
3132;BME280;62090;52.330;9.104;2023-07-29T10:09:35;100054.72;;;26.04;67.17
3132;BME280;62090;52.330;9.104;2023-07-29T10:12:09;100054.84;;;26.19;64.98
3132;BME280;62090;52.330;9.104;2023-07-29T10:14:40;100058.94;;;26.24;65.79
3132;BME280;62090;52.330;9.104;2023-07-29T10:17:11;100063.09;;;26.28;64.32
3132;BME280;62090;52.330;9.104;2023-07-29T10:19:41;100058.25;;;26.21;64.53
3132;BME280;62090;52.330;9.104;2023-07-29T10:22:13;100033.66;;;26.25;64.45
3132;BME280;62090;52.330;9.104;2023-07-29T10:24:48;100053.28;;;26.49;62.32
3132;BME280;62090;52.330;9.104;2023-07-29T10:27:23;100049.72;;;26.34;59.49
3132;BME280;62090;52.330;9.104;2023-07-29T10:29:55;100042.63;;;26.19;60.36
3132;BME280;62090;52.330;9.104;2023-07-29T10:32:25;100057.78;;;26.30;59.70
3132;BME280;62090;52.330;9.104;2023-07-29T10:34:56;100053.66;;;26.26;59.61
3132;BME280;62090;52.330;9.104;2023-07-29T10:37:26;100063.88;;;26.30;61.51
3132;BME280;62090;52.330;9.104;2023-07-29T10:39:56;100049.03;;;26.31;57.53
3132;BME280;62090;52.330;9.104;2023-07-29T10:42:29;100058.19;;;26.22;58.62
3132;BME280;62090;52.330;9.104;2023-07-29T10:44:58;100025.97;;;26.04;59.42
3132;BME280;62090;52.330;9.104;2023-07-29T10:47:28;100057.72;;;26.31;58.52
3132;BME280;62090;52.330;9.104;2023-07-29T10:49:59;100042.28;;;26.27;58.50
3132;BME280;62090;52.330;9.104;2023-07-29T10:52:32;100056.00;;;26.47;59.63
3132;BME280;62090;52.330;9.104;2023-07-29T10:55:28;100034.50;;;26.42;57.52
3132;BME280;62090;52.330;9.104;2023-07-29T10:58:09;100051.75;;;26.62;57.81
3132;BME280;62090;52.330;9.104;2023-07-29T11:00:41;100056.78;;;26.65;57.07
3132;BME280;62090;52.330;9.104;2023-07-29T11:03:13;100055.75;;;26.52;57.94
3132;BME280;62090;52.330;9.104;2023-07-29T11:05:46;100054.25;;;26.48;58.44
3132;BME280;62090;52.330;9.104;2023-07-29T11:08:18;100054.44;;;26.61;59.65
3132;BME280;62090;52.330;9.104;2023-07-29T11:10:59;100054.13;;;26.82;56.92
3132;BME280;62090;52.330;9.104;2023-07-29T11:13:34;100064.81;;;26.95;58.19
3132;BME280;62090;52.330;9.104;2023-07-29T11:16:05;100057.66;;;26.81;56.64
3132;BME280;62090;52.330;9.104;2023-07-29T11:18:35;100053.28;;;26.82;57.49
3132;BME280;62090;52.330;9.104;2023-07-29T11:21:06;100052.16;;;26.87;56.25
3132;BME280;62090;52.330;9.104;2023-07-29T11:23:37;100063.75;;;26.82;57.29
3132;BME280;62090;52.330;9.104;2023-07-29T11:26:06;100069.28;;;26.93;56.22
3132;BME280;62090;52.330;9.104;2023-07-29T11:28:42;100071.56;;;26.99;54.96
3132;BME280;62090;52.330;9.104;2023-07-29T11:31:12;100065.38;;;26.84;57.71
3132;BME280;62090;52.330;9.104;2023-07-29T11:33:42;100071.09;;;26.75;56.01
3132;BME280;62090;52.330;9.104;2023-07-29T11:36:18;100048.53;;;26.57;56.41
3132;BME280;62090;52.330;9.104;2023-07-29T11:38:50;100074.91;;;26.85;56.91
3132;BME280;62090;52.330;9.104;2023-07-29T11:41:20;100080.28;;;26.82;55.85
3132;BME280;62090;52.330;9.104;2023-07-29T11:43:54;100069.75;;;26.84;57.46
3132;BME280;62090;52.330;9.104;2023-07-29T11:46:24;100077.00;;;27.12;55.63
3132;BME280;62090;52.330;9.104;2023-07-29T11:48:54;100065.00;;;27.08;54.36
3132;BME280;62090;52.330;9.104;2023-07-29T11:51:25;100070.22;;;27.08;54.91
3132;BME280;62090;52.330;9.104;2023-07-29T11:53:55;100075.13;;;27.14;54.29
3132;BME280;62090;52.330;9.104;2023-07-29T11:56:25;100075.38;;;27.09;54.27
3132;BME280;62090;52.330;9.104;2023-07-29T11:58:59;100064.06;;;27.09;53.38
3132;BME280;62090;52.330;9.104;2023-07-29T12:01:30;100083.03;;;26.97;52.73
3132;BME280;62090;52.330;9.104;2023-07-29T12:04:00;100072.50;;;26.81;53.44
3132;BME280;62090;52.330;9.104;2023-07-29T12:06:31;100070.97;;;26.61;53.79
3132;BME280;62090;52.330;9.104;2023-07-29T12:09:01;100068.09;;;26.66;54.79
3132;BME280;62090;52.330;9.104;2023-07-29T12:11:32;100061.81;;;26.70;54.36
3132;BME280;62090;52.330;9.104;2023-07-29T12:14:07;100031.69;;;26.78;54.70
3132;BME280;62090;52.330;9.104;2023-07-29T12:16:43;100072.09;;;27.37;55.53
3132;BME280;62090;52.330;9.104;2023-07-29T12:19:14;100061.78;;;27.34;54.00
3132;BME280;62090;52.330;9.104;2023-07-29T12:21:45;100063.16;;;27.10;53.86
3132;BME280;62090;52.330;9.104;2023-07-29T12:24:15;100062.63;;;27.03;53.60
3132;BME280;62090;52.330;9.104;2023-07-29T12:26:45;100071.00;;;27.10;54.54
3132;BME280;62090;52.330;9.104;2023-07-29T12:29:19;100059.09;;;27.20;53.82
3132;BME280;62090;52.330;9.104;2023-07-29T12:31:57;100052.28;;;27.02;53.59
3132;BME280;62090;52.330;9.104;2023-07-29T12:34:28;100060.28;;;27.14;54.54
3132;BME280;62090;52.330;9.104;2023-07-29T12:36:59;100059.69;;;27.25;53.48
3132;BME280;62090;52.330;9.104;2023-07-29T12:39:32;100059.94;;;27.36;53.92
3132;BME280;62090;52.330;9.104;2023-07-29T12:42:03;100034.28;;;27.58;54.54
3132;BME280;62090;52.330;9.104;2023-07-29T12:44:37;100054.22;;;27.91;52.66
3132;BME280;62090;52.330;9.104;2023-07-29T12:47:07;100050.25;;;27.84;54.93
3132;BME280;62090;52.330;9.104;2023-07-29T12:49:38;100048.41;;;27.86;52.35
3132;BME280;62090;52.330;9.104;2023-07-29T12:52:08;100056.06;;;27.89;50.23
3132;BME280;62090;52.330;9.104;2023-07-29T12:54:38;100048.00;;;27.78;51.61
3132;BME280;62090;52.330;9.104;2023-07-29T12:57:11;100039.22;;;27.79;53.28
3132;BME280;62090;52.330;9.104;2023-07-29T12:59:43;100050.56;;;27.93;52.05
3132;BME280;62090;52.330;9.104;2023-07-29T13:02:13;100047.59;;;27.69;52.39
3132;BME280;62090;52.330;9.104;2023-07-29T13:04:43;100045.59;;;27.43;54.22
3132;BME280;62090;52.330;9.104;2023-07-29T13:07:13;100050.81;;;27.43;53.26
3132;BME280;62090;52.330;9.104;2023-07-29T13:09:43;100045.00;;;27.38;53.81
3132;BME280;62090;52.330;9.104;2023-07-29T13:12:13;100057.06;;;27.56;53.69
3132;BME280;62090;52.330;9.104;2023-07-29T13:14:45;100045.41;;;27.46;53.40
3132;BME280;62090;52.330;9.104;2023-07-29T13:17:15;100059.41;;;27.45;54.27